Time;durP1;ratioP1;P1;durP2;ratioP2;P2;SDS_P1;SDS_P2;PMS_P1;PMS_P2;Temp;Humidity;BMP_temperature;BMP_pressure;BME280_temperature;BME280_humidity;BME280_pressure;Samples;Min_cycle;Max_cycle;Signal;HPM_P1;HPM_P2
2022/04/23 00:00:07;;;;;;;29.13;26.10;;;8.40;1.00;;;;;;5076987;28;20921;-58
2022/04/23 00:02:41;;;;;;;28.90;26.00;;;8.40;28.20;;;;;;5077088;28;20489;-58
2022/04/23 00:05:11;;;;;;;30.67;27.57;;;8.40;54.60;;;;;;5077128;28;20781;-58
2022/04/23 00:07:38;;;;;;;30.07;26.80;;;8.40;95.20;;;;;;5077406;28;20460;-58
2022/04/23 00:10:09;;;;;;;29.87;26.83;;;8.30;95.20;;;;;;5076298;28;20907;-59
2022/04/23 00:12:40;;;;;;;32.87;29.43;;;8.30;99.90;;;;;;5077448;28;20468;-58
2022/04/23 00:15:14;;;;;;;31.90;27.30;;;8.30;99.90;;;;;;5076211;28;20901;-57
2022/04/23 00:17:49;;;;;;;30.70;27.70;;;8.30;99.90;;;;;;5077208;28;20499;-56
2022/04/23 00:20:23;;;;;;;31.07;27.97;;;8.30;99.90;;;;;;5076359;28;20456;-58
2022/04/23 00:22:50;;;;;;;31.03;27.77;;;8.30;99.90;;;;;;5076589;28;20457;-58
2022/04/23 00:25:18;;;;;;;30.90;27.50;;;8.30;99.90;;;;;;5076784;28;20493;-59
2022/04/23 00:27:47;;;;;;;31.53;28.17;;;8.20;99.90;;;;;;5076726;28;20496;-58
2022/04/23 00:30:19;;;;;;;30.83;27.57;;;8.20;99.90;;;;;;5076899;28;20461;-58
2022/04/23 00:32:46;;;;;;;31.33;28.10;;;8.20;99.90;;;;;;5076544;28;20539;-58
2022/04/23 00:35:18;;;;;;;32.97;29.50;;;8.10;99.90;;;;;;5077015;28;20525;-58
2022/04/23 00:37:54;;;;;;;32.83;29.43;;;8.10;99.90;;;;;;5076525;28;20821;-59
2022/04/23 00:40:24;;;;;;;30.03;27.00;;;8.10;99.90;;;;;;5077185;28;20489;-58
2022/04/23 00:42:57;;;;;;;31.13;27.83;;;8.10;99.90;;;;;;5076496;28;20967;-58
2022/04/23 00:45:30;;;;;;;35.37;30.60;;;8.10;99.90;;;;;;5081123;28;20464;-58
2022/04/23 00:47:57;;;;;;;31.20;27.90;;;8.00;99.90;;;;;;5081189;28;20496;-58
2022/04/23 00:50:24;;;;;;;32.77;29.37;;;8.00;1.00;;;;;;5080561;28;20491;-58
2022/04/23 00:52:54;;;;;;;34.27;30.70;;;8.00;99.90;;;;;;5080233;28;20457;-57
2022/04/23 00:55:21;;;;;;;32.30;29.00;;;7.90;99.90;;;;;;5081249;28;20885;-58
2022/04/23 00:57:55;;;;;;;32.37;29.07;;;8.00;1.00;;;;;;5079764;28;20489;-58
2022/04/23 01:00:22;;;;;;;31.60;28.50;;;7.90;1.00;;;;;;5080742;28;20477;-57
2022/04/23 01:02:53;;;;;;;31.37;28.37;;;7.90;99.90;;;;;;5080176;28;20877;-58
2022/04/23 01:05:23;;;;;;;31.03;27.90;;;7.90;99.90;;;;;;5080536;28;20493;-58
2022/04/23 01:07:52;;;;;;;31.67;28.30;;;7.80;99.90;;;;;;5080403;28;20464;-58
2022/04/23 01:10:20;;;;;;;30.63;27.47;;;7.80;99.90;;;;;;5080146;28;20468;-58
2022/04/23 01:12:49;;;;;;;31.50;28.30;;;7.80;99.90;;;;;;5080009;28;20453;-58
2022/04/23 01:15:16;;;;;;;29.83;26.70;;;7.70;99.90;;;;;;5080214;28;20548;-58
2022/04/23 01:17:54;;;;;;;31.07;27.77;;;7.70;99.90;;;;;;5080252;28;20856;-59
2022/04/23 01:20:25;;;;;;;30.60;27.50;;;7.70;99.90;;;;;;5079992;28;20518;-59
2022/04/23 01:22:53;;;;;;;33.87;27.53;;;7.70;99.90;;;;;;5080369;28;20460;-58
2022/04/23 01:25:22;;;;;;;32.53;29.37;;;7.70;99.90;;;;;;5079820;28;20489;-57
2022/04/23 01:27:54;;;;;;;32.33;29.20;;;7.70;1.00;;;;;;5080016;28;20882;-58
2022/04/23 01:30:22;;;;;;;32.70;29.20;;;7.70;1.00;;;;;;5079351;28;20511;-57
2022/04/23 01:32:52;;;;;;;31.53;27.77;;;7.70;1.00;;;;;;5079905;28;20511;-58
2022/04/23 01:35:19;;;;;;;30.57;27.40;;;7.70;1.00;;;;;;5079401;28;20454;-58
2022/04/23 01:37:51;;;;;;;30.83;25.97;;;7.70;1.00;;;;;;5080058;28;20464;-58
2022/04/23 01:40:25;;;;;;;30.17;27.03;;;7.70;1.00;;;;;;5079197;28;20457;-59
2022/04/23 01:42:53;;;;;;;29.27;26.20;;;7.70;1.00;;;;;;5079067;28;20460;-58
2022/04/23 01:45:20;;;;;;;29.47;26.37;;;7.70;1.00;;;;;;5078125;28;20489;-59
2022/04/23 01:48:08;;;;;;;29.00;26.00;;;7.70;1.00;;;;;;5078136;28;20554;-58
2022/04/23 01:50:46;;;;;;;27.27;24.40;;;7.70;1.00;;;;;;5078453;28;20820;-58
2022/04/23 01:53:18;;;;;;;29.90;26.70;;;7.70;1.00;;;;;;5078558;28;20514;-58
2022/04/23 01:55:45;;;;;;;27.50;24.70;;;7.70;1.00;;;;;;5077617;28;20461;-58
2022/04/23 01:58:14;;;;;;;27.87;24.90;;;7.70;1.00;;;;;;5078375;28;21030;-55
2022/04/23 02:00:41;;;;;;;27.20;24.37;;;7.70;1.00;;;;;;5077597;28;20530;-58
2022/04/23 02:03:08;;;;;;;29.40;26.40;;;7.60;1.00;;;;;;5078486;28;20905;-58
2022/04/23 02:05:41;;;;;;;28.53;25.67;;;7.60;1.00;;;;;;5073859;28;20490;-58
2022/04/23 02:08:08;;;;;;;28.27;25.30;;;7.60;1.00;;;;;;5073798;28;20472;-58
2022/04/23 02:10:39;;;;;;;27.37;24.47;;;7.60;99.90;;;;;;5077228;28;20507;-58
2022/04/23 02:13:14;;;;;;;27.37;24.20;;;7.60;1.00;;;;;;5077949;28;20472;-59
2022/04/23 02:15:44;;;;;;;27.57;24.43;;;7.50;99.90;;;;;;5071877;28;20515;-57
2022/04/23 02:18:21;;;;;;;29.93;26.73;;;7.60;1.00;;;;;;5075347;28;20500;-58
2022/04/23 02:20:50;;;;;;;28.57;25.60;;;7.50;99.90;;;;;;5077925;28;20893;-58
2022/04/23 02:23:19;;;;;;;29.30;26.30;;;7.40;99.90;;;;;;5078302;28;20769;-57
2022/04/23 02:25:53;;;;;;;25.77;23.17;;;7.30;99.90;;;;;;5077406;28;20887;-58
2022/04/23 02:28:22;;;;;;;27.37;24.27;;;7.20;99.90;;;;;;5076959;28;20465;-58
2022/04/23 02:30:49;;;;;;;27.00;24.27;;;7.20;99.90;;;;;;5077218;28;20841;-58
2022/04/23 02:33:16;;;;;;;27.40;24.60;;;7.20;99.90;;;;;;5078181;28;20520;-57
2022/04/23 02:35:44;;;;;;;27.27;24.47;;;7.20;99.90;;;;;;5078057;28;20462;-58
2022/04/23 02:40:54;;;;;;;27.13;23.47;;;7.20;99.90;;;;;;5076819;28;20472;-57
2022/04/23 02:43:21;;;;;;;26.17;23.40;;;7.20;99.90;;;;;;5068066;28;251829;-58
2022/04/23 02:45:52;;;;;;;26.47;23.80;;;7.20;1.00;;;;;;5077483;28;20500;-58
2022/04/23 02:48:23;;;;;;;26.27;23.57;;;7.20;1.00;;;;;;5078247;28;20472;-58
2022/04/23 02:50:53;;;;;;;27.40;24.67;;;7.10;1.00;;;;;;5078769;28;20465;-57
2022/04/23 02:53:20;;;;;;;26.90;24.10;;;7.10;1.00;;;;;;5077974;28;20959;-55
2022/04/23 02:55:47;;;;;;;26.73;23.93;;;7.10;1.00;;;;;;5078547;28;20507;-57
2022/04/23 02:58:18;;;;;;;26.00;23.33;;;7.10;1.00;;;;;;5077760;28;20462;-56
2022/04/23 03:00:59;;;;;;;25.57;22.83;;;7.10;1.00;;;;;;5078158;28;20484;-58
2022/04/23 03:03:29;;;;;;;25.53;22.87;;;7.10;1.00;;;;;;5078063;28;20461;-59
2022/04/23 03:05:59;;;;;;;30.40;24.77;;;7.10;1.00;;;;;;5077906;28;20493;-58
2022/04/23 03:08:30;;;;;;;27.87;23.87;;;7.10;1.00;;;;;;5077477;28;20469;-57
2022/04/23 03:11:02;;;;;;;25.40;22.77;;;7.00;1.00;;;;;;5077937;28;20552;-57
2022/04/23 03:13:34;;;;;;;28.57;24.53;;;7.00;1.00;;;;;;5078065;28;20465;-56
2022/04/23 03:16:03;;;;;;;26.30;22.97;;;7.00;1.00;;;;;;5078393;28;20461;-56
2022/04/23 03:18:33;;;;;;;26.40;23.60;;;7.00;1.00;;;;;;5076836;28;20522;-58
2022/04/23 03:21:00;;;;;;;29.17;26.20;;;7.00;13.70;;;;;;5077691;28;20554;-57
2022/04/23 03:23:29;;;;;;;28.17;25.20;;;6.90;19.80;;;;;;5078064;28;20465;-57
2022/04/23 03:26:01;;;;;;;26.60;23.70;;;6.90;1.00;;;;;;5076946;28;20515;-57
2022/04/23 03:28:28;;;;;;;27.77;24.83;;;6.90;99.90;;;;;;5077618;28;20461;-58
2022/04/23 03:30:57;;;;;;;27.73;24.57;;;6.90;1.00;;;;;;5077871;28;20469;-57
2022/04/23 03:33:32;;;;;;;29.37;25.50;;;6.90;1.00;;;;;;5077901;28;20825;-56
2022/04/23 03:35:59;;;;;;;30.10;26.40;;;6.90;1.00;;;;;;5077177;28;20443;-58
2022/04/23 03:38:26;;;;;;;28.50;25.57;;;6.90;1.00;;;;;;5077604;28;20439;-58
2022/04/23 03:40:55;;;;;;;28.00;25.00;;;6.90;1.00;;;;;;5077231;28;20820;-58
2022/04/23 03:43:27;;;;;;;29.87;25.70;;;6.90;84.40;;;;;;5077399;28;20584;-55
2022/04/23 03:45:59;;;;;;;29.10;25.03;;;6.90;1.00;;;;;;5077290;28;20581;-58
2022/04/23 03:48:31;;;;;;;27.67;24.63;;;6.90;99.90;;;;;;5077722;28;20702;-56
2022/04/23 03:51:01;;;;;;;31.23;26.70;;;7.00;99.90;;;;;;5076987;28;20466;-58
2022/04/23 03:53:31;;;;;;;29.33;26.13;;;6.90;99.90;;;;;;5077675;28;20461;-57
2022/04/23 03:56:05;;;;;;;30.07;26.70;;;6.90;99.90;;;;;;5076389;28;20449;-57
2022/04/23 03:58:36;;;;;;;32.33;26.30;;;6.90;99.90;;;;;;5077017;28;20457;-57
2022/04/23 04:01:05;;;;;;;29.73;26.40;;;6.90;99.90;;;;;;5076955;28;20465;-57
2022/04/23 04:03:37;;;;;;;31.90;26.67;;;7.00;99.90;;;;;;5077784;28;20922;-56
2022/04/23 04:06:04;;;;;;;27.57;24.70;;;7.00;99.90;;;;;;5076779;28;20497;-56
2022/04/23 04:08:34;;;;;;;30.60;27.37;;;7.00;1.00;;;;;;5077131;28;20507;-58
2022/04/23 04:11:04;;;;;;;29.27;26.10;;;7.00;99.90;;;;;;5076618;28;20465;-58
2022/04/23 04:13:31;;;;;;;29.43;26.13;;;7.00;99.90;;;;;;5077449;28;20819;-58
2022/04/23 04:15:58;;;;;;;29.63;26.63;;;7.00;99.90;;;;;;5077299;28;20530;-58
2022/04/23 04:18:30;;;;;;;30.50;27.20;;;6.90;33.90;;;;;;5076250;28;20772;-59
2022/04/23 04:21:00;;;;;;;31.60;27.03;;;7.00;99.90;;;;;;5076915;28;20466;-58
2022/04/23 04:23:27;;;;;;;29.43;26.17;;;6.90;99.90;;;;;;5077217;28;20465;-59
2022/04/23 04:26:00;;;;;;;34.27;29.10;;;6.90;1.00;;;;;;5077521;28;20521;-59
2022/04/23 04:28:27;;;;;;;31.27;27.50;;;6.90;1.00;;;;;;5076044;28;20468;-59
2022/04/23 04:33:54;;;;;;;31.60;27.40;;;6.90;99.90;;;;;;5033720;28;20432;-58
2022/04/23 04:36:21;;;;;;;28.20;25.20;;;6.90;99.90;;;;;;5034540;28;20534;-59
2022/04/23 04:38:51;;;;;;;29.80;26.20;;;6.90;1.00;;;;;;5034373;28;20486;-58
2022/04/23 04:41:21;;;;;;;31.90;27.63;;;6.80;1.00;;;;;;5034560;28;20771;-58
2022/04/23 04:43:48;;;;;;;31.80;27.60;;;6.80;99.90;;;;;;5032776;28;20537;-57
2022/04/23 04:46:18;;;;;;;31.77;28.40;;;6.90;1.00;;;;;;5069335;28;20837;-58
2022/04/23 04:48:46;;;;;;;37.67;30.90;;;6.90;1.00;;;;;;5076671;28;20901;-59
2022/04/23 04:51:16;;;;;;;33.37;29.80;;;7.00;96.30;;;;;;5077066;28;20762;-57
2022/04/23 04:53:43;;;;;;;32.60;29.10;;;7.00;99.90;;;;;;5076604;28;20453;-56
2022/04/23 04:56:12;;;;;;;35.83;31.83;;;7.10;99.90;;;;;;5076533;28;20484;-59
2022/04/23 04:58:40;;;;;;;37.40;32.77;;;7.10;99.90;;;;;;5073941;28;20474;-58
2022/04/23 05:01:07;;;;;;;32.30;29.00;;;7.10;99.90;;;;;;5076656;28;20505;-57
2022/04/23 05:03:34;;;;;;;39.80;31.53;;;7.20;99.90;;;;;;5075954;28;20457;-58
2022/04/23 05:06:05;;;;;;;36.77;31.33;;;7.20;99.90;;;;;;5076409;28;20830;-58
2022/04/23 05:08:40;;;;;;;36.50;31.70;;;7.30;99.90;;;;;;5075573;28;20480;-57
2022/04/23 05:11:07;;;;;;;33.97;30.27;;;7.30;99.90;;;;;;5077007;28;20464;-56
2022/04/23 05:13:34;;;;;;;36.03;31.97;;;7.40;99.90;;;;;;5074533;28;20515;-59
2022/04/23 05:16:08;;;;;;;37.10;31.97;;;7.40;99.90;;;;;;5074942;28;20912;-59
2022/04/23 05:18:37;;;;;;;35.47;31.63;;;7.40;62.80;;;;;;5075693;28;20465;-58
2022/04/23 05:21:05;;;;;;;35.07;31.23;;;7.50;1.00;;;;;;5076590;28;20873;-58
2022/04/23 05:23:34;;;;;;;36.80;31.30;;;7.60;1.00;;;;;;5076845;28;20506;-58
2022/04/23 05:26:03;;;;;;;40.37;32.27;;;7.70;1.00;;;;;;5076445;28;20542;-58
2022/04/23 05:28:30;;;;;;;36.07;32.27;;;7.80;1.00;;;;;;5075461;28;20472;-59
2022/04/23 05:31:01;;;;;;;36.87;33.03;;;7.90;11.70;;;;;;5079861;28;20815;-58
2022/04/23 05:33:29;;;;;;;35.67;31.77;;;8.00;21.00;;;;;;5079754;28;20801;-57
2022/04/23 05:36:00;;;;;;;36.60;31.60;;;8.10;1.00;;;;;;5079668;28;20461;-58
2022/04/23 05:38:27;;;;;;;35.37;31.23;;;8.20;1.00;;;;;;5079573;28;20550;-58
2022/04/23 05:40:56;;;;;;;36.70;32.00;;;8.20;99.90;;;;;;5078818;28;20465;-58
2022/04/23 05:43:23;;;;;;;36.77;32.43;;;8.40;99.90;;;;;;5079107;28;20554;-59
2022/04/23 05:45:52;;;;;;;38.07;31.97;;;8.50;99.90;;;;;;5079913;28;20999;-59
2022/04/23 05:48:22;;;;;;;36.30;32.60;;;8.60;99.90;;;;;;5079722;28;20482;-59
2022/04/23 05:50:49;;;;;;;35.93;32.03;;;8.80;99.90;;;;;;5079140;28;20461;-58
2022/04/23 05:53:16;;;;;;;37.30;33.20;;;8.90;13.60;;;;;;5079528;28;20458;-58
2022/04/23 05:55:43;;;;;;;35.53;31.83;;;9.00;1.00;;;;;;5079066;28;20511;-59
2022/04/23 05:58:11;;;;;;;36.13;32.33;;;9.20;99.90;;;;;;5078978;28;20461;-58
2022/04/23 06:00:41;;;;;;;38.57;34.37;;;9.30;44.50;;;;;;5078215;28;20783;-58
2022/04/23 06:03:14;;;;;;;36.97;33.37;;;9.50;1.00;;;;;;5079532;28;20526;-58
2022/04/23 06:05:43;;;;;;;36.33;32.67;;;9.60;1.00;;;;;;5079390;28;20528;-58
2022/04/23 06:08:12;;;;;;;35.30;31.80;;;9.80;99.90;;;;;;5079637;28;20889;-59
2022/04/23 06:10:48;;;;;;;40.63;33.73;;;9.90;99.90;;;;;;5078440;28;20457;-58
2022/04/23 06:13:20;;;;;;;31.90;28.60;;;10.10;99.90;;;;;;5079159;28;20925;-58
2022/04/23 06:15:50;;;;;;;33.83;30.33;;;10.40;99.90;;;;;;5079464;28;20468;-59
2022/04/23 06:18:17;;;;;;;33.17;29.83;;;10.50;7.60;;;;;;5078989;28;20461;-59
2022/04/23 06:20:44;;;;;;;33.90;30.50;;;10.70;1.00;;;;;;5077049;28;20462;-58
2022/04/23 06:23:11;;;;;;;31.93;28.77;;;10.90;1.00;;;;;;5077994;28;20894;-59
2022/04/23 06:25:41;;;;;;;32.37;29.10;;;11.20;1.00;;;;;;5078305;28;20847;-59
2022/04/23 06:28:11;;;;;;;30.27;27.37;;;11.40;1.00;;;;;;5077389;28;20523;-58
2022/04/23 06:30:42;;;;;;;30.27;27.40;;;11.60;1.00;;;;;;5077287;28;20777;-59
2022/04/23 06:33:09;;;;;;;31.93;28.73;;;11.90;1.00;;;;;;5077900;28;20461;-59
2022/04/23 06:35:36;;;;;;;29.60;26.80;;;12.10;1.00;;;;;;5078464;28;20492;-58
2022/04/23 06:38:03;;;;;;;29.63;26.47;;;12.30;1.00;;;;;;5079034;28;20520;-59
2022/04/23 06:40:36;;;;;;;26.40;23.80;;;12.50;1.00;;;;;;5077753;28;20462;-59
2022/04/23 06:43:05;;;;;;;26.37;23.90;;;12.70;1.00;;;;;;5078313;28;21033;-59
2022/04/23 06:45:37;;;;;;;25.40;23.07;;;12.90;1.00;;;;;;5078390;28;20853;-59
2022/04/23 06:48:06;;;;;;;26.00;23.53;;;13.10;1.00;;;;;;5077768;28;20461;-59
2022/04/23 06:50:34;;;;;;;27.20;24.27;;;13.30;99.90;;;;;;5078571;28;20461;-59
2022/04/23 06:53:02;;;;;;;23.50;21.40;;;13.40;99.90;;;;;;5077879;28;20465;-59
2022/04/23 06:55:32;;;;;;;24.67;22.23;;;13.40;99.90;;;;;;5078908;28;20508;-59
2022/04/23 06:58:02;;;;;;;23.30;21.17;;;13.60;99.90;;;;;;5078295;28;20465;-58
2022/04/23 07:00:29;;;;;;;23.73;21.57;;;13.80;99.90;;;;;;5077496;28;20514;-58
2022/04/23 07:02:57;;;;;;;24.27;21.87;;;14.00;99.90;;;;;;5077065;28;20453;-59
2022/04/23 07:05:27;;;;;;;22.47;20.33;;;14.30;99.90;;;;;;5076340;28;20491;-59
2022/04/23 07:10:39;;;;;;;19.50;17.83;;;14.80;99.90;;;;;;5071870;28;20751;-58
2022/04/23 07:13:13;;;;;;;21.07;18.97;;;14.90;99.90;;;;;;5077540;28;20966;-59
2022/04/23 07:15:40;;;;;;;21.47;19.43;;;15.10;99.90;;;;;;5078564;28;20470;-59
2022/04/23 07:18:11;;;;;;;19.87;18.00;;;15.30;99.90;;;;;;5076899;28;20963;-59
2022/04/23 07:20:49;;;;;;;18.90;17.20;;;15.50;99.90;;;;;;5077591;28;20510;-59
2022/04/23 07:26:02;;;;;;;17.67;15.93;;;15.70;99.90;;;;;;5056749;28;20631;-58
2022/04/23 07:28:32;;;;;;;19.67;17.83;;;15.90;99.90;;;;;;5064317;28;20469;-59
2022/04/23 07:31:00;;;;;;;19.13;17.43;;;16.00;99.90;;;;;;5076660;28;20780;-58
2022/04/23 07:39:09;;;;;;;19.03;16.73;;;16.10;99.90;;;;;;5066053;28;20904;-59
2022/04/23 07:41:36;;;;;;;19.40;17.60;;;16.30;99.90;;;;;;5077835;28;20575;-58
2022/04/23 07:44:08;;;;;;;19.47;17.67;;;16.40;99.90;;;;;;5076427;28;20572;-58
2022/04/23 07:46:40;;;;;;;18.40;16.80;;;16.60;99.90;;;;;;5077086;28;20582;-58
2022/04/23 07:49:13;;;;;;;17.90;16.50;;;16.70;99.90;;;;;;5077739;28;20911;-58
2022/04/23 07:51:43;;;;;;;18.00;16.40;;;16.70;99.90;;;;;;5077744;28;20461;-60
2022/04/23 07:54:10;;;;;;;17.50;16.10;;;16.50;99.90;;;;;;5077203;28;20465;-59
2022/04/23 07:56:39;;;;;;;16.63;15.13;;;16.60;99.90;;;;;;5077345;28;20531;-58
2022/04/23 07:59:06;;;;;;;19.00;17.20;;;16.70;99.90;;;;;;5077115;28;20468;-59
2022/04/23 08:01:35;;;;;;;17.63;16.03;;;16.90;99.90;;;;;;5077634;28;20740;-60
2022/04/23 08:04:03;;;;;;;18.70;17.10;;;17.20;99.90;;;;;;5076952;28;20548;-58
2022/04/23 08:06:31;;;;;;;18.53;16.63;;;17.40;99.90;;;;;;5077428;28;20497;-59
2022/04/23 08:09:00;;;;;;;16.73;15.20;;;17.40;99.90;;;;;;5077085;28;20556;-59
2022/04/23 08:11:27;;;;;;;16.93;15.33;;;17.60;99.90;;;;;;5077338;28;20461;-59
2022/04/23 08:13:55;;;;;;;19.10;17.13;;;17.50;99.90;;;;;;5076529;28;20492;-59
2022/04/23 08:16:28;;;;;;;19.53;17.73;;;17.60;99.90;;;;;;5077183;28;20468;-58
2022/04/23 08:18:59;;;;;;;20.13;18.23;;;17.60;99.90;;;;;;5077197;28;20461;-59
2022/04/23 08:21:26;;;;;;;19.97;18.17;;;17.80;99.90;;;;;;5076673;28;20471;-59
2022/04/23 08:23:53;;;;;;;19.43;17.07;;;17.60;99.90;;;;;;5077093;28;20461;-60
2022/04/23 08:26:24;;;;;;;19.50;17.70;;;17.90;99.90;;;;;;5076295;28;20937;-59
2022/04/23 08:31:35;;;;;;;19.53;17.80;;;17.80;99.90;;;;;;5075512;28;20523;-58
2022/04/23 08:34:02;;;;;;;19.00;17.17;;;18.00;99.90;;;;;;5075562;28;20488;-60
2022/04/23 08:36:35;;;;;;;18.90;17.30;;;18.20;99.90;;;;;;5076707;28;20461;-59
2022/04/23 08:39:04;;;;;;;18.63;16.73;;;17.80;99.90;;;;;;5076750;28;20505;-61
2022/04/23 08:41:36;;;;;;;19.07;17.47;;;17.70;99.90;;;;;;5076338;28;20491;-59
2022/04/23 08:44:08;;;;;;;18.23;16.43;;;17.50;99.90;;;;;;5076339;28;20489;-59
2022/04/23 08:46:37;;;;;;;18.43;16.83;;;17.60;99.90;;;;;;5077137;28;20493;-58
2022/04/23 08:49:19;;;;;;;17.93;16.30;;;17.60;99.90;;;;;;5075408;28;20465;-59
2022/04/23 08:51:57;;;;;;;17.47;15.90;;;18.10;99.90;;;;;;5056626;28;20464;-59
2022/04/23 08:54:25;;;;;;;16.17;14.70;;;18.50;99.90;;;;;;5056195;28;20461;-60
2022/04/23 08:56:53;;;;;;;16.77;15.37;;;18.50;99.90;;;;;;5076993;28;20522;-60
2022/04/23 08:59:23;;;;;;;17.93;16.27;;;18.20;99.90;;;;;;5075458;28;20972;-60
2022/04/23 09:01:50;;;;;;;18.47;16.80;;;18.10;99.90;;;;;;5077309;28;20572;-59
2022/04/23 09:07:23;;;;;;;21.03;18.83;;;18.30;99.90;;;;;;5077458;28;20577;-59
2022/04/23 09:09:53;;;;;;;18.33;16.73;;;18.30;99.90;;;;;;5079832;28;20775;-60
2022/04/23 09:12:26;;;;;;;19.17;17.57;;;18.30;99.90;;;;;;5079204;28;20460;-58
2022/04/23 09:15:05;;;;;;;19.13;17.53;;;18.70;99.90;;;;;;5080538;28;20889;-59
2022/04/23 09:25:54;;;;;;;17.67;16.07;;;18.30;99.90;;;;;;5029695;28;20512;-59
2022/04/23 09:28:26;;;;;;;18.23;16.50;;;18.10;99.90;;;;;;5079768;28;20467;-60
2022/04/23 09:30:59;;;;;;;19.17;17.27;;;18.20;99.90;;;;;;5080040;28;20464;-60
2022/04/23 09:33:42;;;;;;;18.43;16.73;;;18.60;99.90;;;;;;5080206;28;20472;-59
2022/04/23 09:36:09;;;;;;;17.03;15.43;;;18.50;99.90;;;;;;5078937;28;20453;-60
2022/04/23 09:38:38;;;;;;;15.60;14.20;;;18.80;99.90;;;;;;5077635;28;20502;-58
2022/04/23 09:41:16;;;;;;;15.80;14.30;;;19.60;99.90;;;;;;5078129;28;20473;-60
2022/04/23 09:44:09;;;;;;;14.67;13.00;;;19.40;99.90;;;;;;5078139;28;20966;-60
2022/04/23 09:46:46;;;;;;;15.90;14.40;;;19.50;99.90;;;;;;5073587;28;20534;-60
2022/04/23 09:49:21;;;;;;;15.43;13.87;;;20.10;99.90;;;;;;5059454;28;20516;-60
2022/04/23 09:52:02;;;;;;;14.00;12.80;;;20.80;99.90;;;;;;5066432;28;20500;-61
2022/04/23 09:54:31;;;;;;;14.77;13.33;;;20.60;99.90;;;;;;5080047;28;20514;-59
2022/04/23 09:56:59;;;;;;;14.43;13.20;;;20.10;99.90;;;;;;5078790;28;20463;-58
2022/04/23 09:59:35;;;;;;;15.40;14.00;;;19.70;99.90;;;;;;5077728;28;20504;-59
2022/04/23 10:02:04;;;;;;;13.60;12.50;;;19.50;99.90;;;;;;5079629;28;20514;-59
2022/04/23 10:04:36;;;;;;;16.30;14.90;;;19.20;99.90;;;;;;5079720;28;20983;-60
2022/04/23 10:07:07;;;;;;;15.80;14.40;;;18.60;99.90;;;;;;5079507;28;20562;-59
2022/04/23 10:09:40;;;;;;;15.47;14.17;;;18.30;99.90;;;;;;5078988;28;20465;-58
2022/04/23 10:12:12;;;;;;;15.67;14.17;;;18.70;99.90;;;;;;5079428;28;20464;-58
2022/04/23 10:14:47;;;;;;;15.27;13.77;;;18.30;99.90;;;;;;5079417;28;20461;-59
2022/04/23 10:17:20;;;;;;;13.17;12.07;;;17.70;99.90;;;;;;5079499;28;20968;-59
2022/04/23 10:19:49;;;;;;;14.93;12.97;;;17.60;99.90;;;;;;5077592;28;20465;-58
2022/04/23 10:22:21;;;;;;;14.60;13.30;;;17.20;99.90;;;;;;5078503;28;20457;-58
2022/04/23 10:25:05;;;;;;;15.53;13.93;;;17.40;99.90;;;;;;5077674;28;20650;-58
2022/04/23 10:27:33;;;;;;;15.57;14.07;;;17.40;99.90;;;;;;5078266;28;20489;-59
2022/04/23 10:30:09;;;;;;;15.90;14.40;;;17.30;99.90;;;;;;5077906;28;20964;-57
2022/04/23 10:32:40;;;;;;;15.33;13.93;;;17.40;99.90;;;;;;5079310;28;20590;-58
2022/04/23 10:35:35;;;;;;;16.23;14.73;;;17.60;99.90;;;;;;5078292;28;20935;-58
2022/04/23 10:38:26;;;;;;;15.70;14.20;;;17.60;99.90;;;;;;5079278;28;20476;-59
2022/04/23 10:40:56;;;;;;;16.10;14.53;;;17.50;99.90;;;;;;5078024;28;20461;-57
2022/04/23 10:43:23;;;;;;;16.53;15.03;;;17.60;99.90;;;;;;5077508;28;20464;-58
2022/04/23 10:45:52;;;;;;;16.80;15.17;;;17.50;99.90;;;;;;5079120;28;20522;-59
2022/04/23 10:48:35;;;;;;;16.60;15.10;;;17.50;99.90;;;;;;5078485;28;20535;-59
2022/04/23 10:51:15;;;;;;;16.20;14.67;;;17.60;99.90;;;;;;5078284;28;20536;-59
2022/04/23 10:54:03;;;;;;;15.70;13.97;;;17.70;99.90;;;;;;5079011;28;20457;-59
2022/04/23 10:56:37;;;;;;;16.07;14.67;;;18.80;99.90;;;;;;5078609;28;20741;-60
2022/04/23 10:59:04;;;;;;;17.47;15.87;;;19.40;99.90;;;;;;5078391;28;20457;-59
2022/04/23 11:01:37;;;;;;;18.27;16.67;;;19.20;99.90;;;;;;5078167;28;20466;-59
2022/04/23 11:04:25;;;;;;;18.03;15.70;;;19.10;99.90;;;;;;5078400;28;20465;-59
2022/04/23 11:12:36;;;;;;;17.53;15.80;;;18.30;99.90;;;;;;5077489;28;20448;-57
2022/04/23 11:15:18;;;;;;;16.20;14.70;;;18.40;99.90;;;;;;5077980;28;20564;-59
2022/04/23 11:17:55;;;;;;;17.43;15.83;;;19.20;99.90;;;;;;5078247;28;20560;-60
2022/04/23 11:20:44;;;;;;;17.73;16.13;;;19.00;99.90;;;;;;5076992;28;20560;-58
2022/04/23 11:23:12;;;;;;;17.93;16.13;;;19.20;99.90;;;;;;5074707;28;20465;-60
2022/04/23 11:25:41;;;;;;;16.83;15.33;;;19.50;99.90;;;;;;5077706;28;20466;-60
2022/04/23 11:28:19;;;;;;;16.70;15.20;;;19.70;99.90;;;;;;5076717;28;20583;-59
2022/04/23 11:30:56;;;;;;;17.03;15.33;;;20.20;99.90;;;;;;5075241;28;20623;-57
2022/04/23 11:33:27;;;;;;;18.10;16.40;;;20.10;99.90;;;;;;5075321;28;20472;-59
2022/04/23 11:36:02;;;;;;;18.10;16.40;;;20.50;99.90;;;;;;5073746;28;20556;-61
2022/04/23 11:38:30;;;;;;;17.43;15.93;;;21.20;99.90;;;;;;5077581;28;20526;-58
2022/04/23 11:41:00;;;;;;;18.00;16.40;;;20.10;99.90;;;;;;5076779;28;20473;-58
2022/04/23 11:43:31;;;;;;;18.90;17.20;;;19.90;99.90;;;;;;5075351;28;20454;-59
2022/04/23 11:46:06;;;;;;;17.63;16.07;;;19.70;99.90;;;;;;5075457;28;20496;-58
2022/04/23 11:48:46;;;;;;;20.00;18.10;;;19.00;99.90;;;;;;5056475;28;20501;-59
2022/04/23 11:51:20;;;;;;;18.50;16.90;;;18.40;99.90;;;;;;5057597;28;20466;-58
2022/04/23 11:53:59;;;;;;;18.03;16.30;;;18.60;99.90;;;;;;5069565;28;20461;-60
2022/04/23 11:56:33;;;;;;;19.60;17.80;;;19.00;99.90;;;;;;5077408;28;20643;-58
2022/04/23 11:59:06;;;;;;;19.20;17.07;;;18.60;99.90;;;;;;5075569;28;20468;-59
2022/04/23 12:01:38;;;;;;;19.43;16.87;;;18.30;99.90;;;;;;5077642;28;20512;-60
2022/04/23 12:04:06;;;;;;;19.33;17.43;;;18.80;99.90;;;;;;5076311;28;20465;-58
2022/04/23 12:06:51;;;;;;;17.10;15.30;;;18.90;99.90;;;;;;5076892;28;20897;-60
2022/04/23 12:09:26;;;;;;;16.50;15.00;;;19.00;99.90;;;;;;5076476;28;20598;-60
2022/04/23 12:11:59;;;;;;;16.80;15.33;;;19.20;99.90;;;;;;5077135;28;20877;-59
2022/04/23 12:14:47;;;;;;;16.47;14.97;;;19.20;99.90;;;;;;5075789;28;20560;-60
2022/04/23 12:17:23;;;;;;;18.27;16.57;;;20.20;99.90;;;;;;5076484;28;20909;-59
2022/04/23 12:19:58;;;;;;;18.27;16.60;;;20.90;99.90;;;;;;5076904;28;20461;-60
2022/04/23 12:22:31;;;;;;;17.23;15.43;;;20.40;99.90;;;;;;5056483;28;20560;-59
2022/04/23 12:25:12;;;;;;;17.63;15.57;;;20.40;99.90;;;;;;5056611;28;20565;-60
2022/04/23 12:27:53;;;;;;;16.37;14.93;;;21.00;99.90;;;;;;5071586;28;20583;-60
2022/04/23 12:41:56;;;;;;;14.33;13.13;;;21.50;99.90;;;;;;5079729;28;20825;-60
2022/04/23 12:44:26;;;;;;;15.20;13.97;;;20.90;99.90;;;;;;5060521;28;20525;-59
2022/04/23 12:47:06;;;;;;;15.33;14.03;;;20.30;99.90;;;;;;5060350;28;20529;-56
2022/04/23 12:49:48;;;;;;;14.60;13.30;;;20.00;99.90;;;;;;5079713;28;20468;-60
2022/04/23 12:52:32;;;;;;;13.73;12.33;;;19.40;99.90;;;;;;5080428;28;20904;-59
2022/04/23 12:55:14;;;;;;;13.17;11.83;;;18.90;99.90;;;;;;5081101;28;20468;-59
2022/04/23 12:57:48;;;;;;;12.60;11.50;;;19.50;99.90;;;;;;5080164;28;20457;-59
2022/04/23 13:00:20;;;;;;;14.60;13.17;;;20.50;99.90;;;;;;5081025;28;20483;-59
2022/04/23 13:02:54;;;;;;;13.40;12.20;;;21.30;99.90;;;;;;5080178;28;20496;-60
2022/04/23 13:05:26;;;;;;;14.83;13.53;;;21.20;99.90;;;;;;5081087;28;20462;-59
2022/04/23 13:10:48;;;;;;;13.20;12.10;;;20.00;99.90;;;;;;5080186;28;20441;-58
2022/04/23 13:13:22;;;;;;;14.33;12.73;;;21.10;99.90;;;;;;5080310;28;20465;-59
2022/04/23 13:15:56;;;;;;;12.93;11.63;;;21.20;99.90;;;;;;5080229;28;20472;-60
2022/04/23 13:18:29;;;;;;;12.10;11.10;;;20.40;99.90;;;;;;5079515;28;20488;-59
2022/04/23 13:21:00;;;;;;;13.03;11.83;;;19.80;99.90;;;;;;5080205;28;20461;-59
2022/04/23 13:23:32;;;;;;;14.17;13.00;;;19.30;99.90;;;;;;5080543;28;20468;-59
2022/04/23 13:25:59;;;;;;;14.23;13.03;;;19.10;99.90;;;;;;5078157;28;20470;-58
2022/04/23 13:28:28;;;;;;;14.40;13.20;;;19.00;99.90;;;;;;5079988;28;20533;-60
2022/04/23 13:30:55;;;;;;;17.17;15.57;;;19.10;99.90;;;;;;5078551;28;20471;-58
2022/04/23 13:33:24;;;;;;;16.20;14.80;;;18.90;99.90;;;;;;5079496;28;20511;-58
2022/04/23 13:35:51;;;;;;;17.27;15.77;;;18.90;99.90;;;;;;5079783;28;20825;-56
2022/04/23 13:38:21;;;;;;;15.80;14.30;;;18.70;99.90;;;;;;5079782;28;20744;-57
2022/04/23 13:40:53;;;;;;;17.17;15.63;;;18.40;99.90;;;;;;5078935;28;20633;-58
2022/04/23 13:43:22;;;;;;;16.17;14.77;;;18.10;99.90;;;;;;5080099;28;20457;-57